sensor_id;sensor_type;location;lat;lon;timestamp;temperature;humidity
22558;DHT22;11445;53.816;8.902;2022-10-01T00:01:15;11.00;99.90
22558;DHT22;11445;53.816;8.902;2022-10-01T00:03:43;11.00;99.90
22558;DHT22;11445;53.816;8.902;2022-10-01T00:06:13;11.00;99.90
22558;DHT22;11445;53.816;8.902;2022-10-01T00:08:43;11.00;99.90
22558;DHT22;11445;53.816;8.902;2022-10-01T00:11:14;11.00;99.90
22558;DHT22;11445;53.816;8.902;2022-10-01T00:13:43;11.00;99.90
22558;DHT22;11445;53.816;8.902;2022-10-01T00:16:12;11.00;99.90
22558;DHT22;11445;53.816;8.902;2022-10-01T00:18:42;11.10;99.90
22558;DHT22;11445;53.816;8.902;2022-10-01T00:21:11;11.10;99.90
22558;DHT22;11445;53.816;8.902;2022-10-01T00:23:39;11.10;99.90
22558;DHT22;11445;53.816;8.902;2022-10-01T00:26:08;11.10;99.90
22558;DHT22;11445;53.816;8.902;2022-10-01T00:28:36;11.10;99.90
22558;DHT22;11445;53.816;8.902;2022-10-01T00:31:04;11.20;99.90
22558;DHT22;11445;53.816;8.902;2022-10-01T00:33:31;11.20;99.90
22558;DHT22;11445;53.816;8.902;2022-10-01T00:36:00;11.20;99.90
22558;DHT22;11445;53.816;8.902;2022-10-01T00:38:27;11.20;99.90
22558;DHT22;11445;53.816;8.902;2022-10-01T00:40:54;11.20;99.90
22558;DHT22;11445;53.816;8.902;2022-10-01T00:43:22;11.20;99.90
22558;DHT22;11445;53.816;8.902;2022-10-01T00:45:51;11.20;99.90
22558;DHT22;11445;53.816;8.902;2022-10-01T00:48:19;11.20;99.90
22558;DHT22;11445;53.816;8.902;2022-10-01T00:50:48;11.20;99.90
22558;DHT22;11445;53.816;8.902;2022-10-01T00:53:18;11.20;99.90
22558;DHT22;11445;53.816;8.902;2022-10-01T00:55:49;11.20;99.90
22558;DHT22;11445;53.816;8.902;2022-10-01T00:58:19;11.20;99.90
22558;DHT22;11445;53.816;8.902;2022-10-01T01:00:48;11.30;99.90
22558;DHT22;11445;53.816;8.902;2022-10-01T01:03:15;11.30;99.90
22558;DHT22;11445;53.816;8.902;2022-10-01T01:05:43;11.30;99.90
22558;DHT22;11445;53.816;8.902;2022-10-01T01:08:13;11.30;99.90
22558;DHT22;11445;53.816;8.902;2022-10-01T01:10:48;11.30;99.90
22558;DHT22;11445;53.816;8.902;2022-10-01T01:13:23;11.30;99.90
22558;DHT22;11445;53.816;8.902;2022-10-01T01:15:55;11.30;99.90
22558;DHT22;11445;53.816;8.902;2022-10-01T01:18:30;11.30;99.90
22558;DHT22;11445;53.816;8.902;2022-10-01T01:21:11;11.40;99.90
22558;DHT22;11445;53.816;8.902;2022-10-01T01:23:56;11.40;99.90
22558;DHT22;11445;53.816;8.902;2022-10-01T01:26:32;11.40;99.90
22558;DHT22;11445;53.816;8.902;2022-10-01T01:29:06;11.40;99.90
22558;DHT22;11445;53.816;8.902;2022-10-01T01:31:37;11.40;99.90
22558;DHT22;11445;53.816;8.902;2022-10-01T01:34:07;11.40;99.90
22558;DHT22;11445;53.816;8.902;2022-10-01T01:36:40;11.30;99.90
22558;DHT22;11445;53.816;8.902;2022-10-01T01:39:11;11.30;99.90
22558;DHT22;11445;53.816;8.902;2022-10-01T01:41:42;11.30;99.90
22558;DHT22;11445;53.816;8.902;2022-10-01T01:44:15;11.30;99.90
22558;DHT22;11445;53.816;8.902;2022-10-01T01:46:44;11.30;99.90
22558;DHT22;11445;53.816;8.902;2022-10-01T01:49:14;11.30;99.90
22558;DHT22;11445;53.816;8.902;2022-10-01T01:51:46;11.30;99.90
22558;DHT22;11445;53.816;8.902;2022-10-01T01:54:15;11.30;99.90
22558;DHT22;11445;53.816;8.902;2022-10-01T01:56:42;11.30;99.90
22558;DHT22;11445;53.816;8.902;2022-10-01T01:59:10;11.30;99.90
22558;DHT22;11445;53.816;8.902;2022-10-01T02:01:41;11.30;99.90
22558;DHT22;11445;53.816;8.902;2022-10-01T02:04:13;11.30;99.90
22558;DHT22;11445;53.816;8.902;2022-10-01T02:06:53;11.30;99.90
22558;DHT22;11445;53.816;8.902;2022-10-01T02:09:29;11.30;99.90
22558;DHT22;11445;53.816;8.902;2022-10-01T02:12:05;11.30;99.90
22558;DHT22;11445;53.816;8.902;2022-10-01T02:14:40;11.30;99.90
22558;DHT22;11445;53.816;8.902;2022-10-01T02:17:19;11.30;99.90
22558;DHT22;11445;53.816;8.902;2022-10-01T02:19:54;11.30;99.90
22558;DHT22;11445;53.816;8.902;2022-10-01T02:22:28;11.30;99.90
22558;DHT22;11445;53.816;8.902;2022-10-01T02:25:00;11.30;99.90
22558;DHT22;11445;53.816;8.902;2022-10-01T02:27:35;11.30;99.90
22558;DHT22;11445;53.816;8.902;2022-10-01T02:30:06;11.30;99.90
22558;DHT22;11445;53.816;8.902;2022-10-01T02:32:37;11.30;99.90
22558;DHT22;11445;53.816;8.902;2022-10-01T02:35:06;11.20;99.90
22558;DHT22;11445;53.816;8.902;2022-10-01T02:37:36;11.20;99.90
22558;DHT22;11445;53.816;8.902;2022-10-01T02:40:06;11.20;99.90
22558;DHT22;11445;53.816;8.902;2022-10-01T02:42:37;11.10;99.90
22558;DHT22;11445;53.816;8.902;2022-10-01T02:45:07;11.10;99.90
22558;DHT22;11445;53.816;8.902;2022-10-01T02:47:39;11.00;99.90
22558;DHT22;11445;53.816;8.902;2022-10-01T02:50:08;11.00;99.90
22558;DHT22;11445;53.816;8.902;2022-10-01T02:52:40;11.00;99.90
22558;DHT22;11445;53.816;8.902;2022-10-01T02:55:11;10.90;99.90
22558;DHT22;11445;53.816;8.902;2022-10-01T02:57:39;10.90;99.90
22558;DHT22;11445;53.816;8.902;2022-10-01T03:00:09;10.80;99.90
22558;DHT22;11445;53.816;8.902;2022-10-01T03:02:37;10.80;99.90
22558;DHT22;11445;53.816;8.902;2022-10-01T03:05:05;10.80;99.90
22558;DHT22;11445;53.816;8.902;2022-10-01T03:07:34;10.70;99.90
22558;DHT22;11445;53.816;8.902;2022-10-01T03:10:01;10.70;99.90
22558;DHT22;11445;53.816;8.902;2022-10-01T03:12:28;10.70;99.90
22558;DHT22;11445;53.816;8.902;2022-10-01T03:14:55;10.70;99.90
22558;DHT22;11445;53.816;8.902;2022-10-01T03:17:23;10.60;99.90
22558;DHT22;11445;53.816;8.902;2022-10-01T03:19:51;10.70;99.90
22558;DHT22;11445;53.816;8.902;2022-10-01T03:22:19;10.60;99.90
22558;DHT22;11445;53.816;8.902;2022-10-01T03:24:47;10.60;99.90
22558;DHT22;11445;53.816;8.902;2022-10-01T03:27:14;10.50;99.90
22558;DHT22;11445;53.816;8.902;2022-10-01T03:29:42;10.50;99.90
22558;DHT22;11445;53.816;8.902;2022-10-01T03:32:09;10.50;99.90
22558;DHT22;11445;53.816;8.902;2022-10-01T03:34:36;10.50;99.90
22558;DHT22;11445;53.816;8.902;2022-10-01T03:37:05;10.50;99.90
22558;DHT22;11445;53.816;8.902;2022-10-01T03:39:32;10.50;99.90
22558;DHT22;11445;53.816;8.902;2022-10-01T03:41:59;10.50;99.90
22558;DHT22;11445;53.816;8.902;2022-10-01T03:44:26;10.40;99.90
22558;DHT22;11445;53.816;8.902;2022-10-01T03:46:54;10.40;99.90
22558;DHT22;11445;53.816;8.902;2022-10-01T03:49:21;10.40;99.90
22558;DHT22;11445;53.816;8.902;2022-10-01T03:51:48;10.40;99.90
22558;DHT22;11445;53.816;8.902;2022-10-01T03:54:17;10.40;99.90
22558;DHT22;11445;53.816;8.902;2022-10-01T03:56:44;10.40;99.90
22558;DHT22;11445;53.816;8.902;2022-10-01T03:59:12;10.30;99.90
22558;DHT22;11445;53.816;8.902;2022-10-01T04:01:39;10.30;99.90
22558;DHT22;11445;53.816;8.902;2022-10-01T04:04:06;10.30;99.90
22558;DHT22;11445;53.816;8.902;2022-10-01T04:06:33;10.30;99.90
22558;DHT22;11445;53.816;8.902;2022-10-01T04:09:01;10.30;99.90
22558;DHT22;11445;53.816;8.902;2022-10-01T04:11:29;10.30;99.90
22558;DHT22;11445;53.816;8.902;2022-10-01T04:13:57;10.20;99.90
22558;DHT22;11445;53.816;8.902;2022-10-01T04:16:24;10.20;99.90
22558;DHT22;11445;53.816;8.902;2022-10-01T04:18:51;10.20;99.90
22558;DHT22;11445;53.816;8.902;2022-10-01T04:21:18;10.20;99.90
22558;DHT22;11445;53.816;8.902;2022-10-01T04:23:45;10.20;99.90
22558;DHT22;11445;53.816;8.902;2022-10-01T04:26:12;10.20;99.90
22558;DHT22;11445;53.816;8.902;2022-10-01T04:28:41;10.20;99.90
22558;DHT22;11445;53.816;8.902;2022-10-01T04:31:11;10.20;99.90
22558;DHT22;11445;53.816;8.902;2022-10-01T04:33:50;10.20;99.90
22558;DHT22;11445;53.816;8.902;2022-10-01T04:36:17;10.20;99.90
22558;DHT22;11445;53.816;8.902;2022-10-01T04:38:44;10.20;99.90
22558;DHT22;11445;53.816;8.902;2022-10-01T04:41:11;10.20;99.90
22558;DHT22;11445;53.816;8.902;2022-10-01T04:43:41;10.20;99.90
22558;DHT22;11445;53.816;8.902;2022-10-01T04:46:08;10.20;99.90
22558;DHT22;11445;53.816;8.902;2022-10-01T04:48:35;10.20;99.90
22558;DHT22;11445;53.816;8.902;2022-10-01T04:51:02;10.20;99.90
22558;DHT22;11445;53.816;8.902;2022-10-01T04:53:29;10.10;99.90
22558;DHT22;11445;53.816;8.902;2022-10-01T04:55:56;10.10;99.90
22558;DHT22;11445;53.816;8.902;2022-10-01T04:58:24;10.10;99.90
22558;DHT22;11445;53.816;8.902;2022-10-01T05:00:52;10.20;99.90
22558;DHT22;11445;53.816;8.902;2022-10-01T05:03:20;10.10;99.90
22558;DHT22;11445;53.816;8.902;2022-10-01T05:05:47;10.20;99.90
22558;DHT22;11445;53.816;8.902;2022-10-01T05:08:14;10.10;99.90
22558;DHT22;11445;53.816;8.902;2022-10-01T05:10:41;10.20;99.90
22558;DHT22;11445;53.816;8.902;2022-10-01T05:13:08;10.20;99.90
22558;DHT22;11445;53.816;8.902;2022-10-01T05:15:35;10.20;99.90
22558;DHT22;11445;53.816;8.902;2022-10-01T05:18:04;10.20;99.90
22558;DHT22;11445;53.816;8.902;2022-10-01T05:20:32;10.20;99.90
22558;DHT22;11445;53.816;8.902;2022-10-01T05:22:59;10.20;99.90
22558;DHT22;11445;53.816;8.902;2022-10-01T05:25:26;10.20;99.90
22558;DHT22;11445;53.816;8.902;2022-10-01T05:27:59;10.20;99.90
22558;DHT22;11445;53.816;8.902;2022-10-01T05:30:29;10.20;99.90
22558;DHT22;11445;53.816;8.902;2022-10-01T05:32:58;10.20;99.90
22558;DHT22;11445;53.816;8.902;2022-10-01T05:35:28;10.20;99.90
22558;DHT22;11445;53.816;8.902;2022-10-01T05:37:56;10.20;99.90
22558;DHT22;11445;53.816;8.902;2022-10-01T05:40:24;10.20;99.90
22558;DHT22;11445;53.816;8.902;2022-10-01T05:42:52;10.20;99.90
22558;DHT22;11445;53.816;8.902;2022-10-01T05:45:20;10.20;99.90
22558;DHT22;11445;53.816;8.902;2022-10-01T05:47:54;10.20;99.90
22558;DHT22;11445;53.816;8.902;2022-10-01T05:50:22;10.20;99.90
22558;DHT22;11445;53.816;8.902;2022-10-01T05:52:51;10.20;99.90
22558;DHT22;11445;53.816;8.902;2022-10-01T05:55:19;10.20;99.90
22558;DHT22;11445;53.816;8.902;2022-10-01T05:57:53;10.20;99.90
22558;DHT22;11445;53.816;8.902;2022-10-01T06:00:20;10.20;99.90
22558;DHT22;11445;53.816;8.902;2022-10-01T06:02:51;10.20;99.90
22558;DHT22;11445;53.816;8.902;2022-10-01T06:05:18;10.20;99.90
22558;DHT22;11445;53.816;8.902;2022-10-01T06:07:46;10.20;99.90
22558;DHT22;11445;53.816;8.902;2022-10-01T06:10:15;10.30;99.90
22558;DHT22;11445;53.816;8.902;2022-10-01T06:12:42;10.30;99.90
22558;DHT22;11445;53.816;8.902;2022-10-01T06:15:10;10.30;99.90
22558;DHT22;11445;53.816;8.902;2022-10-01T06:17:38;10.30;99.90
22558;DHT22;11445;53.816;8.902;2022-10-01T06:20:10;10.30;99.90
22558;DHT22;11445;53.816;8.902;2022-10-01T06:22:38;10.30;99.90
22558;DHT22;11445;53.816;8.902;2022-10-01T06:25:06;10.30;99.90
22558;DHT22;11445;53.816;8.902;2022-10-01T06:27:35;10.30;99.90
22558;DHT22;11445;53.816;8.902;2022-10-01T06:30:02;10.30;99.90
22558;DHT22;11445;53.816;8.902;2022-10-01T06:32:30;10.30;99.90
22558;DHT22;11445;53.816;8.902;2022-10-01T06:34:57;10.30;99.90
22558;DHT22;11445;53.816;8.902;2022-10-01T06:37:24;10.30;99.90
22558;DHT22;11445;53.816;8.902;2022-10-01T06:39:51;10.40;99.90
22558;DHT22;11445;53.816;8.902;2022-10-01T06:42:18;10.40;99.90
22558;DHT22;11445;53.816;8.902;2022-10-01T06:44:46;10.40;99.90
22558;DHT22;11445;53.816;8.902;2022-10-01T06:47:13;10.40;99.90
22558;DHT22;11445;53.816;8.902;2022-10-01T06:49:40;10.40;99.90
22558;DHT22;11445;53.816;8.902;2022-10-01T06:52:08;10.40;99.90
22558;DHT22;11445;53.816;8.902;2022-10-01T06:54:53;10.40;99.90
22558;DHT22;11445;53.816;8.902;2022-10-01T06:57:20;10.40;99.90
22558;DHT22;11445;53.816;8.902;2022-10-01T06:59:48;10.40;99.90
22558;DHT22;11445;53.816;8.902;2022-10-01T07:02:21;10.50;99.90
22558;DHT22;11445;53.816;8.902;2022-10-01T07:04:53;10.50;99.90
22558;DHT22;11445;53.816;8.902;2022-10-01T07:07:23;10.50;99.90
22558;DHT22;11445;53.816;8.902;2022-10-01T07:09:50;10.50;99.90
22558;DHT22;11445;53.816;8.902;2022-10-01T07:12:17;10.50;99.90
22558;DHT22;11445;53.816;8.902;2022-10-01T07:14:45;10.50;99.90
22558;DHT22;11445;53.816;8.902;2022-10-01T07:17:13;10.50;99.90
22558;DHT22;11445;53.816;8.902;2022-10-01T07:19:40;10.50;99.90
22558;DHT22;11445;53.816;8.902;2022-10-01T07:22:07;10.60;99.90
22558;DHT22;11445;53.816;8.902;2022-10-01T07:24:34;10.60;99.90
22558;DHT22;11445;53.816;8.902;2022-10-01T07:27:01;10.60;99.90
22558;DHT22;11445;53.816;8.902;2022-10-01T07:29:29;10.60;99.90
22558;DHT22;11445;53.816;8.902;2022-10-01T07:31:57;10.60;99.90
22558;DHT22;11445;53.816;8.902;2022-10-01T07:34:26;10.60;99.90
22558;DHT22;11445;53.816;8.902;2022-10-01T07:36:53;10.60;99.90
22558;DHT22;11445;53.816;8.902;2022-10-01T07:39:21;10.60;99.90
22558;DHT22;11445;53.816;8.902;2022-10-01T07:41:48;10.60;99.90
22558;DHT22;11445;53.816;8.902;2022-10-01T07:44:16;10.60;99.90
22558;DHT22;11445;53.816;8.902;2022-10-01T07:46:43;10.60;99.90
22558;DHT22;11445;53.816;8.902;2022-10-01T07:49:11;10.60;99.90
22558;DHT22;11445;53.816;8.902;2022-10-01T07:51:40;10.70;99.90
22558;DHT22;11445;53.816;8.902;2022-10-01T07:54:08;10.70;99.90
22558;DHT22;11445;53.816;8.902;2022-10-01T07:56:35;10.70;99.90
22558;DHT22;11445;53.816;8.902;2022-10-01T07:59:03;10.70;99.90
22558;DHT22;11445;53.816;8.902;2022-10-01T08:01:30;10.70;99.90
22558;DHT22;11445;53.816;8.902;2022-10-01T08:03:57;10.70;99.90
22558;DHT22;11445;53.816;8.902;2022-10-01T08:06:24;10.70;99.90
22558;DHT22;11445;53.816;8.902;2022-10-01T08:08:52;10.70;99.90
22558;DHT22;11445;53.816;8.902;2022-10-01T08:11:19;10.70;99.90
22558;DHT22;11445;53.816;8.902;2022-10-01T08:13:46;10.70;99.90
22558;DHT22;11445;53.816;8.902;2022-10-01T08:16:14;10.80;99.90
22558;DHT22;11445;53.816;8.902;2022-10-01T08:18:41;10.80;99.90
22558;DHT22;11445;53.816;8.902;2022-10-01T08:21:08;10.80;99.90
22558;DHT22;11445;53.816;8.902;2022-10-01T08:23:35;10.80;99.90
22558;DHT22;11445;53.816;8.902;2022-10-01T08:26:06;10.90;99.90
22558;DHT22;11445;53.816;8.902;2022-10-01T08:28:33;10.90;99.90
22558;DHT22;11445;53.816;8.902;2022-10-01T08:31:03;11.00;99.90
22558;DHT22;11445;53.816;8.902;2022-10-01T08:33:34;11.10;99.90
22558;DHT22;11445;53.816;8.902;2022-10-01T08:36:03;11.10;99.90
22558;DHT22;11445;53.816;8.902;2022-10-01T08:38:32;11.20;99.90
22558;DHT22;11445;53.816;8.902;2022-10-01T08:41:06;11.30;99.90
22558;DHT22;11445;53.816;8.902;2022-10-01T08:43:38;11.40;99.90
22558;DHT22;11445;53.816;8.902;2022-10-01T08:46:10;11.50;99.90
22558;DHT22;11445;53.816;8.902;2022-10-01T08:48:42;11.50;99.90
22558;DHT22;11445;53.816;8.902;2022-10-01T08:51:17;11.60;99.90
22558;DHT22;11445;53.816;8.902;2022-10-01T08:53:49;11.80;99.90
22558;DHT22;11445;53.816;8.902;2022-10-01T08:56:22;12.10;99.90
22558;DHT22;11445;53.816;8.902;2022-10-01T08:58:56;12.30;99.90
22558;DHT22;11445;53.816;8.902;2022-10-01T09:01:24;12.60;99.90
22558;DHT22;11445;53.816;8.902;2022-10-01T09:03:51;12.70;99.90
22558;DHT22;11445;53.816;8.902;2022-10-01T09:06:20;12.90;99.90
22558;DHT22;11445;53.816;8.902;2022-10-01T09:09:05;13.00;99.90
22558;DHT22;11445;53.816;8.902;2022-10-01T09:11:51;13.00;99.90
22558;DHT22;11445;53.816;8.902;2022-10-01T09:14:44;12.90;99.90
22558;DHT22;11445;53.816;8.902;2022-10-01T09:17:19;12.90;99.90
22558;DHT22;11445;53.816;8.902;2022-10-01T09:20:03;12.80;99.90
22558;DHT22;11445;53.816;8.902;2022-10-01T09:22:36;12.90;99.90
22558;DHT22;11445;53.816;8.902;2022-10-01T09:25:11;12.80;99.90
22558;DHT22;11445;53.816;8.902;2022-10-01T09:27:40;12.90;99.90
22558;DHT22;11445;53.816;8.902;2022-10-01T09:30:12;12.90;99.90
22558;DHT22;11445;53.816;8.902;2022-10-01T09:32:44;13.00;99.90
22558;DHT22;11445;53.816;8.902;2022-10-01T09:35:23;13.10;99.90
22558;DHT22;11445;53.816;8.902;2022-10-01T09:37:56;13.20;99.90
22558;DHT22;11445;53.816;8.902;2022-10-01T09:40:32;13.50;99.90
22558;DHT22;11445;53.816;8.902;2022-10-01T09:43:02;13.60;99.90
22558;DHT22;11445;53.816;8.902;2022-10-01T09:45:29;13.60;99.90
22558;DHT22;11445;53.816;8.902;2022-10-01T09:48:02;13.70;99.90
22558;DHT22;11445;53.816;8.902;2022-10-01T09:50:37;13.80;99.90
22558;DHT22;11445;53.816;8.902;2022-10-01T09:53:12;13.90;99.90
22558;DHT22;11445;53.816;8.902;2022-10-01T09:55:42;13.90;99.90
22558;DHT22;11445;53.816;8.902;2022-10-01T09:58:13;13.90;99.90
22558;DHT22;11445;53.816;8.902;2022-10-01T10:00:42;13.90;99.90
22558;DHT22;11445;53.816;8.902;2022-10-01T10:03:21;13.90;99.90
22558;DHT22;11445;53.816;8.902;2022-10-01T10:05:48;13.90;99.90
22558;DHT22;11445;53.816;8.902;2022-10-01T10:08:22;14.00;99.90
22558;DHT22;11445;53.816;8.902;2022-10-01T10:10:52;14.00;99.90
22558;DHT22;11445;53.816;8.902;2022-10-01T10:13:28;14.00;99.90
22558;DHT22;11445;53.816;8.902;2022-10-01T10:15:57;14.10;99.90
22558;DHT22;11445;53.816;8.902;2022-10-01T10:18:28;14.20;99.90
22558;DHT22;11445;53.816;8.902;2022-10-01T10:21:01;14.20;99.90
22558;DHT22;11445;53.816;8.902;2022-10-01T10:23:28;14.30;99.90
22558;DHT22;11445;53.816;8.902;2022-10-01T10:25:56;14.40;99.90
22558;DHT22;11445;53.816;8.902;2022-10-01T10:28:27;14.50;99.90
22558;DHT22;11445;53.816;8.902;2022-10-01T10:30:56;14.60;99.90
22558;DHT22;11445;53.816;8.902;2022-10-01T10:33:24;14.70;99.90
22558;DHT22;11445;53.816;8.902;2022-10-01T10:36:03;14.70;99.90
22558;DHT22;11445;53.816;8.902;2022-10-01T10:38:32;14.70;99.90
22558;DHT22;11445;53.816;8.902;2022-10-01T10:41:00;14.80;99.90
22558;DHT22;11445;53.816;8.902;2022-10-01T10:43:32;14.90;99.90
22558;DHT22;11445;53.816;8.902;2022-10-01T10:46:00;15.00;99.90
22558;DHT22;11445;53.816;8.902;2022-10-01T10:48:30;15.00;99.90
22558;DHT22;11445;53.816;8.902;2022-10-01T10:50:59;15.00;99.90
22558;DHT22;11445;53.816;8.902;2022-10-01T10:53:28;15.00;99.90
22558;DHT22;11445;53.816;8.902;2022-10-01T10:55:59;15.00;99.90
22558;DHT22;11445;53.816;8.902;2022-10-01T10:58:29;15.10;99.90
22558;DHT22;11445;53.816;8.902;2022-10-01T11:00:59;15.10;99.90
22558;DHT22;11445;53.816;8.902;2022-10-01T11:03:29;15.20;99.90
22558;DHT22;11445;53.816;8.902;2022-10-01T11:06:01;15.30;99.90
22558;DHT22;11445;53.816;8.902;2022-10-01T11:08:29;15.30;99.90
22558;DHT22;11445;53.816;8.902;2022-10-01T11:11:06;15.30;99.90
22558;DHT22;11445;53.816;8.902;2022-10-01T11:13:49;15.40;99.90
22558;DHT22;11445;53.816;8.902;2022-10-01T11:16:38;15.50;99.90
22558;DHT22;11445;53.816;8.902;2022-10-01T11:19:32;15.60;99.90
22558;DHT22;11445;53.816;8.902;2022-10-01T11:22:14;15.70;99.90
22558;DHT22;11445;53.816;8.902;2022-10-01T11:24:58;15.80;99.90
22558;DHT22;11445;53.816;8.902;2022-10-01T11:27:33;15.80;99.90
22558;DHT22;11445;53.816;8.902;2022-10-01T11:30:07;15.90;99.90
22558;DHT22;11445;53.816;8.902;2022-10-01T11:32:37;15.90;99.90
22558;DHT22;11445;53.816;8.902;2022-10-01T11:35:25;15.90;99.90
22558;DHT22;11445;53.816;8.902;2022-10-01T11:38:10;15.90;99.90
22558;DHT22;11445;53.816;8.902;2022-10-01T11:40:45;16.00;99.90
22558;DHT22;11445;53.816;8.902;2022-10-01T11:43:19;16.20;99.90
22558;DHT22;11445;53.816;8.902;2022-10-01T11:45:52;16.20;99.90
22558;DHT22;11445;53.816;8.902;2022-10-01T11:48:25;16.20;99.90
22558;DHT22;11445;53.816;8.902;2022-10-01T11:50:58;16.20;99.90
22558;DHT22;11445;53.816;8.902;2022-10-01T11:53:29;16.20;99.90
22558;DHT22;11445;53.816;8.902;2022-10-01T11:56:01;16.20;99.90
22558;DHT22;11445;53.816;8.902;2022-10-01T11:58:52;16.10;99.90
22558;DHT22;11445;53.816;8.902;2022-10-01T12:01:28;15.90;99.90
22558;DHT22;11445;53.816;8.902;2022-10-01T12:04:04;15.60;99.90
22558;DHT22;11445;53.816;8.902;2022-10-01T12:06:36;15.40;99.90
22558;DHT22;11445;53.816;8.902;2022-10-01T12:09:09;15.10;99.90
22558;DHT22;11445;53.816;8.902;2022-10-01T12:11:42;14.90;99.90
22558;DHT22;11445;53.816;8.902;2022-10-01T12:14:16;14.70;99.90
22558;DHT22;11445;53.816;8.902;2022-10-01T12:16:49;14.50;99.90
22558;DHT22;11445;53.816;8.902;2022-10-01T12:19:22;14.30;99.90
22558;DHT22;11445;53.816;8.902;2022-10-01T12:21:54;14.20;99.90
22558;DHT22;11445;53.816;8.902;2022-10-01T12:24:27;14.10;99.90
22558;DHT22;11445;53.816;8.902;2022-10-01T12:27:05;13.90;99.90
22558;DHT22;11445;53.816;8.902;2022-10-01T12:29:43;13.90;99.90
22558;DHT22;11445;53.816;8.902;2022-10-01T12:32:22;13.80;99.90
22558;DHT22;11445;53.816;8.902;2022-10-01T12:35:00;13.90;99.90
22558;DHT22;11445;53.816;8.902;2022-10-01T12:37:40;13.90;99.90
22558;DHT22;11445;53.816;8.902;2022-10-01T12:40:20;14.00;99.90
22558;DHT22;11445;53.816;8.902;2022-10-01T12:43:08;14.00;99.90
22558;DHT22;11445;53.816;8.902;2022-10-01T12:45:44;14.10;99.90
22558;DHT22;11445;53.816;8.902;2022-10-01T12:48:23;14.20;99.90
22558;DHT22;11445;53.816;8.902;2022-10-01T12:51:01;14.30;99.90
22558;DHT22;11445;53.816;8.902;2022-10-01T12:53:38;14.30;99.90
22558;DHT22;11445;53.816;8.902;2022-10-01T12:56:14;14.40;99.90
22558;DHT22;11445;53.816;8.902;2022-10-01T12:58:53;14.40;99.90
22558;DHT22;11445;53.816;8.902;2022-10-01T13:01:38;14.50;99.90
22558;DHT22;11445;53.816;8.902;2022-10-01T13:04:28;14.50;99.90
22558;DHT22;11445;53.816;8.902;2022-10-01T13:07:17;14.60;99.90
22558;DHT22;11445;53.816;8.902;2022-10-01T13:09:50;14.60;99.90
22558;DHT22;11445;53.816;8.902;2022-10-01T13:12:40;14.60;99.90
22558;DHT22;11445;53.816;8.902;2022-10-01T13:15:14;14.70;99.90
22558;DHT22;11445;53.816;8.902;2022-10-01T13:17:48;14.70;99.90
22558;DHT22;11445;53.816;8.902;2022-10-01T13:20:25;14.70;99.90
22558;DHT22;11445;53.816;8.902;2022-10-01T13:23:00;14.80;99.90
22558;DHT22;11445;53.816;8.902;2022-10-01T13:25:32;14.80;99.90
22558;DHT22;11445;53.816;8.902;2022-10-01T13:28:09;14.90;99.90
22558;DHT22;11445;53.816;8.902;2022-10-01T13:30:49;14.80;99.90
22558;DHT22;11445;53.816;8.902;2022-10-01T13:33:22;14.80;99.90
22558;DHT22;11445;53.816;8.902;2022-10-01T13:35:57;14.70;99.90
22558;DHT22;11445;53.816;8.902;2022-10-01T13:38:37;14.70;99.90
22558;DHT22;11445;53.816;8.902;2022-10-01T13:41:17;14.70;99.90
22558;DHT22;11445;53.816;8.902;2022-10-01T13:43:49;14.70;99.90
22558;DHT22;11445;53.816;8.902;2022-10-01T13:46:22;14.80;99.90
22558;DHT22;11445;53.816;8.902;2022-10-01T13:48:51;14.80;99.90
22558;DHT22;11445;53.816;8.902;2022-10-01T13:51:19;15.00;99.90
22558;DHT22;11445;53.816;8.902;2022-10-01T13:53:48;15.10;99.90
22558;DHT22;11445;53.816;8.902;2022-10-01T13:56:28;15.30;99.90
22558;DHT22;11445;53.816;8.902;2022-10-01T13:58:55;15.50;99.90
22558;DHT22;11445;53.816;8.902;2022-10-01T14:01:28;15.60;99.90
22558;DHT22;11445;53.816;8.902;2022-10-01T14:04:01;15.70;99.90
22558;DHT22;11445;53.816;8.902;2022-10-01T14:06:37;15.80;99.90
22558;DHT22;11445;53.816;8.902;2022-10-01T14:09:12;15.80;99.90
22558;DHT22;11445;53.816;8.902;2022-10-01T14:11:42;15.70;99.90
22558;DHT22;11445;53.816;8.902;2022-10-01T14:14:33;15.60;99.90
22558;DHT22;11445;53.816;8.902;2022-10-01T14:17:18;15.60;99.90
22558;DHT22;11445;53.816;8.902;2022-10-01T14:19:47;15.50;99.90
22558;DHT22;11445;53.816;8.902;2022-10-01T14:22:37;15.50;99.90
22558;DHT22;11445;53.816;8.902;2022-10-01T14:25:16;15.30;99.90
22558;DHT22;11445;53.816;8.902;2022-10-01T14:27:56;15.20;99.90
22558;DHT22;11445;53.816;8.902;2022-10-01T14:30:33;15.20;99.90
22558;DHT22;11445;53.816;8.902;2022-10-01T14:33:20;15.10;99.90
22558;DHT22;11445;53.816;8.902;2022-10-01T14:35:57;15.10;99.90
22558;DHT22;11445;53.816;8.902;2022-10-01T14:38:28;15.00;99.90
22558;DHT22;11445;53.816;8.902;2022-10-01T14:40:55;14.90;99.90
22558;DHT22;11445;53.816;8.902;2022-10-01T14:43:23;14.80;99.90
22558;DHT22;11445;53.816;8.902;2022-10-01T14:45:54;14.80;99.90
22558;DHT22;11445;53.816;8.902;2022-10-01T14:48:21;14.80;99.90
22558;DHT22;11445;53.816;8.902;2022-10-01T14:50:50;14.70;99.90
22558;DHT22;11445;53.816;8.902;2022-10-01T14:53:19;14.60;99.90
22558;DHT22;11445;53.816;8.902;2022-10-01T14:55:52;14.60;99.90
22558;DHT22;11445;53.816;8.902;2022-10-01T14:58:22;14.50;99.90
22558;DHT22;11445;53.816;8.902;2022-10-01T15:00:53;14.40;99.90
22558;DHT22;11445;53.816;8.902;2022-10-01T15:03:22;14.30;99.90
22558;DHT22;11445;53.816;8.902;2022-10-01T15:05:49;14.30;99.90
22558;DHT22;11445;53.816;8.902;2022-10-01T15:08:19;14.20;99.90
22558;DHT22;11445;53.816;8.902;2022-10-01T15:10:51;14.20;99.90
22558;DHT22;11445;53.816;8.902;2022-10-01T15:13:24;14.20;99.90
22558;DHT22;11445;53.816;8.902;2022-10-01T15:15:53;14.30;99.90
22558;DHT22;11445;53.816;8.902;2022-10-01T15:18:21;14.30;99.90
22558;DHT22;11445;53.816;8.902;2022-10-01T15:20:53;14.30;99.90
22558;DHT22;11445;53.816;8.902;2022-10-01T15:23:22;14.40;99.90
22558;DHT22;11445;53.816;8.902;2022-10-01T15:25:52;14.40;99.90
22558;DHT22;11445;53.816;8.902;2022-10-01T15:28:27;14.50;99.90
22558;DHT22;11445;53.816;8.902;2022-10-01T15:30:57;14.60;99.90
22558;DHT22;11445;53.816;8.902;2022-10-01T15:33:27;14.60;99.90
22558;DHT22;11445;53.816;8.902;2022-10-01T15:35:58;14.70;99.90
22558;DHT22;11445;53.816;8.902;2022-10-01T15:38:28;14.70;99.90
22558;DHT22;11445;53.816;8.902;2022-10-01T15:40:58;14.70;99.90
22558;DHT22;11445;53.816;8.902;2022-10-01T15:43:33;14.70;99.90
22558;DHT22;11445;53.816;8.902;2022-10-01T15:46:25;14.70;99.90
22558;DHT22;11445;53.816;8.902;2022-10-01T15:49:18;14.70;99.90
22558;DHT22;11445;53.816;8.902;2022-10-01T15:51:49;14.70;99.90
22558;DHT22;11445;53.816;8.902;2022-10-01T15:54:31;14.70;99.90
22558;DHT22;11445;53.816;8.902;2022-10-01T15:57:00;14.70;99.90